Share

Chiang Mai, Thailand

ThaiWx Station (ICHANGWA3) Elev 1007 ft | 18.77 °N, 98.97 °E | Change Station

Current weather conditions updated 3 minutes ago

Scattered Clouds
Scattered Clouds
89.8 °F
Feels Like 94 °F
N
4.5
Wind Variable Wind from WSW
Gusts 7.8 mph
Sunrise 6:05 AM
Sunset 6:42 PM
Moon Waning Gibbous

Tomorrow is forecast to be Much Warmer than today.

Pressure 29.86 in
Visibility 6.2 miles
Clouds Few 3500 ft
Scattered Clouds 30000 ft
Heat Index 94 °F
Dew Point 68 °F
Humidity 49%
Rainfall 0.00 in
Snow Depth Not available.
UV 0 out of 16
Pollen Not available.
Air Quality Not available.
Flu Activity Not available.
METAR VTCC 181430Z 24007KT 9999 FEW035 SCT300 31/17 Q1011 A2988 NOSIG

More Conditions Fewer Conditions

Pressure 29.86 in
Visibility 6.2 miles
Clouds Few 3500 ft
Scattered Clouds 30000 ft
Heat Index 94 °F
Dew Point 68 °F
Humidity 49%
Rainfall 0.00 in
Snow Depth Not available.
UV 0 out of 16
Pollen Not available.
Air Quality Not available.
Flu Activity Not available.
METAR VTCC 181430Z 24007KT 9999 FEW035 SCT300 31/17 Q1011 A2988 NOSIG

More Conditions Fewer Conditions

10-Day Forecast

Almanac

Astronomy

Apr. 18, 2014 Rise Set
Actual Time 6:05 AM ICT 6:42 PM ICT
Civil Twilight 5:42 AM ICT 7:04 PM ICT
Nautical Twilight 5:16 AM ICT 7:30 PM ICT
Astronomical Twilight 4:50 AM ICT 7:57 PM ICT
Moon 9:38 PM ICT 8:16 AM ICT
Length of Visible Light 13h 21m
Length of Day
12h 36m
Tomorrow will be 0m 59s longer.
Waning Gibbous, 87% of the Moon is Illuminated
Today
Waning Gibbous
Apr 22
Last Quarter
Apr 29
New
May 6
First Quarter
May 14
Full

Today's Extremes

Country Highs Country Lows

Community

  • What's for Lunch?
    What's for Lunch?
  • SUNRISE THROUGH THE TREES.
    SUNRISE THROUGH THE TREES.
  • Dog Wood Blossoms
    Dog Wood Blossoms
  • Morning Light
    Morning Light
  • New Day
    New Day

WunderPhotos

Upload Photos

1,702,383 photos uploaded!

Nearby

Snow Depth

Not available.

Coastal Water Temperatures

Place Temperature
No Stations Reporting

Earthquake Activity

City Distance Mag. Time & Date
No recent earthquake activity has been reported nearby.
Minimum magnitude displayed is 2.5.

Nearby Weather Stations

Station Location Temp. Heat Index Dew Point Humidity Wind Precip. Elev Updated Type
ThaiWx Station, Chiang Mai 89.8 °F 94 °F 68 °F 49% WSW  at  4.5 mph 0.00 in / hr 1007 ft 9:52 PM ICT Normal
Station ThaiWx, Chiang Mai 86.8 °F 91 °F 69 °F 55% SW  at  6.0 mph 0.00 in / hr 1007 ft 9:51 PM ICT Normal
Nantawan Villiage, Chiang Mai 88.2 °F 89 °F 64 °F 44% SE  at  1.8 mph 0.00 in / hr 1063 ft 9:55 PM ICT Rapid Fire
Grace International School, T. Nong Khwai, A. Hang Dong 86.9 °F 91 °F 69 °F 56% SW  at  4.5 mph 0.00 in / hr 1033 ft 9:55 PM ICT Rapid Fire

Show More Stations Show Fewer Stations

What do you think?

We're not finished. Please let us know what you like, what you don't like, and what you are still missing.